Data for 03/27/2018

Time Sea-Level Adjusted Pressure Absolute Pressure Temperature Relative Humidity Dew Point   
(mb) (inHg) (mb) (inHg) (C) (F) (%) (C) (F)
00:05 1021 30.15 850 25.1 -1.9 28.7 53 -10.2 13.7
00:10 1021 30.15 850 25.1 -1.8 28.7 51 -10.7 12.7
00:15 1021 30.15 850 25.1 -1.7 29 50 -10.9 12.5
00:20 1020 30.12 850 25.1 -1.6 29.1 49 -10.9 12.4
00:25 1021 30.15 850 25.1 -1.6 29.1 50 -10.7 12.7
00:30 1021 30.15 850 25.1 -1.8 28.8 51 -10.6 12.8
00:35 1021 30.15 850 25.1 -1.9 28.6 52 -10.6 13
00:40 1021 30.15 850 25.1 -1.9 28.5 52 -10.5 13.1
00:45 1021 30.15 850 25.1 -2.1 28.2 53 -10.5 13.1
00:50 1021 30.15 850 25.1 -2.1 28.2 53 -10.4 13.3
00:55 1021 30.15 850 25.1 -2.2 28.1 53 -10.5 13.1
01:00 1021 30.15 850 25.1 -2 28.3 51 -10.8 12.5
01:05 1021 30.15 850 25.1 -1.9 28.6 50 -11 12.2
01:10 1021 30.15 850 25.1 -1.8 28.7 48 -11.5 11.3
01:15 1021 30.15 850 25.1 -1.7 29 48 -11.3 11.7
01:20 1021 30.15 850 25.1 -1.7 29 49 -11.1 11.9
01:25 1021 30.15 850 25.1 -1.7 28.9 49 -11.1 12
01:30 1021 30.15 850 25.1 -1.8 28.7 49 -11.1 11.9
01:35 1021 30.15 850 25.1 -1.9 28.6 49 -11.2 11.8
01:40 1021 30.15 850 25.1 -2 28.5 50 -11.2 11.9
01:45 1021 30.15 850 25.1 -1.9 28.6 50 -11 12.2
01:50 1021 30.15 850 25.1 -2 28.5 50 -11.1 11.9
01:55 1021 30.15 850 25.1 -2 28.5 50 -11 12.2
02:00 1021 30.15 850 25.1 -2 28.4 49 -11.2 11.8
02:05 1021 30.15 850 25.1 -2 28.5 50 -11.1 12
02:10 1021 30.15 850 25.1 -2 28.4 49 -11.3 11.6
02:15 1021 30.15 850 25.1 -1.8 28.7 45 -12.3 9.8
02:20 1021 30.15 850 25.1 -1.3 29.6 43 -12.4 9.7
02:25 1021 30.15 850 25.1 -1.2 29.9 45 -11.7 10.9
02:30 1021 30.15 850 25.1 -1.4 29.5 44 -12 10.4
02:35 1021 30.15 850 25.1 -1.3 29.7 43 -12.2 10
02:40 1021 30.15 850 25.1 -1.2 29.8 44 -11.8 10.7
02:45 1021 30.15 850 25.1 -1.3 29.6 45 -11.9 10.5
02:50 1021 30.15 850 25.1 -1.4 29.5 45 -11.7 10.9
02:55 1021 30.15 850 25.1 -1.6 29.1 46 -11.6 11.1
03:00 1021 30.15 850 25.1 -1.7 28.9 47 -11.8 10.8
03:05 1021 30.15 850 25.1 -1.8 28.7 48 -11.6 11.2
03:10 1021 30.15 850 25.1 -1.9 28.5 48 -11.6 11.1
03:15 1021 30.15 850 25.1 -2 28.3 49 -11.4 11.5
03:20 1021 30.15 850 25.1 -2.2 28.1 49 -11.4 11.4
03:25 1021 30.15 850 25.1 -2.2 28 50 -11.2 11.8
03:30 1021 30.15 850 25.1 -2.3 27.8 50 -11.4 11.5
03:35 1021 30.15 850 25.1 -2.5 27.5 51 -11.4 11.5
03:40 1021 30.15 850 25.1 -2.6 27.3 50 -11.8 10.8
03:45 1021 30.15 850 25.1 -2.4 27.8 48 -11.9 10.6
03:50 1021 30.15 850 25.1 -2.3 27.9 49 -11.7 10.9
03:55 1021 30.15 850 25.1 -2.2 28 48 -11.7 10.9
04:00 1021 30.15 850 25.1 -2.2 28 49 -11.6 11.1
04:05 1021 30.15 850 25.1 -2.4 27.7 50 -11.5 11.2
04:10 1021 30.15 850 25.1 -2.5 27.5 50 -11.6 11.1
04:15 1021 30.15 850 25.1 -2.4 27.8 49 -11.7 11
04:20 1021 30.15 850 25.1 -2.3 27.8 50 -11.5 11.3
04:25 1021 30.15 850 25.1 -2.4 27.6 50 -11.5 11.3
04:30 1021 30.15 850 25.1 -2.6 27.4 51 -11.4 11.4
04:35 1021 30.15 850 25.1 -2.6 27.4 51 -11.4 11.5
04:40 1021 30.15 850 25.1 -2.5 27.4 50 -11.5 11.3
04:45 1021 30.15 850 25.1 -2.5 27.6 50 -11.5 11.3
04:50 1021 30.15 850 25.1 -2.4 27.6 50 -11.4 11.5
04:55 1021 30.15 850 25.1 -2.5 27.5 51 -11.4 11.5
05:00 1021 30.15 850 25.1 -2.6 27.3 51 -11.5 11.4
05:05 1021 30.15 850 25.1 -2.5 27.5 50 -11.6 11.1
05:10 1021 30.15 850 25.1 -2.5 27.6 50 -11.5 11.3
05:15 1021 30.15 850 25.1 -2.7 27.2 52 -11.1 11.9
05:20 1020 30.12 850 25.1 -3.3 26.1 54 -11.3 11.7
05:25 1020 30.12 850 25.1 -3.5 25.6 54 -11.5 11.4
05:30 1020 30.12 850 25.1 -3.3 26.1 53 -11.6 11.2
05:35 1020 30.12 850 25.1 -3 26.5 52 -11.5 11.4
05:40 1020 30.12 850 25.1 -3.1 26.4 52 -11.7 11
05:45 1020 30.12 850 25.1 -3 26.7 52 -11.5 11.4
05:50 1021 30.15 850 25.1 -3 26.6 53 -11.2 11.8
05:55 1021 30.15 850 25.1 -3.2 26.2 54 -11.3 11.6
06:00 1021 30.15 850 25.1 -3.2 26.3 54 -11.3 11.7
06:05 1021 30.15 850 25.1 -3.2 26.2 53 -11.4 11.5
06:10 1021 30.15 850 25.1 -3 26.6 52 -11.4 11.5
06:15 1021 30.15 850 25.1 -2.9 26.8 53 -11.1 12.1
06:20 1021 30.15 850 25.1 -2.8 26.9 54 -10.9 12.4
06:25 1021 30.15 850 25.1 -2.8 27 54 -11 12.3
06:30 1021 30.15 850 25.1 -2.8 27 54 -11 12.2
06:35 1021 30.15 850 25.1 -2.9 26.9 54 -10.9 12.4
06:40 1021 30.15 850 25.1 -3 26.7 55 -10.8 12.6
06:45 1021 30.15 850 25.1 -3.3 26.1 58 -10.4 13.3
06:50 1021 30.15 850 25.1 -3.7 25.3 60 -10.4 13.2
06:55 1021 30.15 850 25.1 -3.6 25.5 60 -10.3 13.5
07:00 1020 30.12 850 25.1 -3.7 25.4 62 -10 14
07:05 1021 30.15 850 25.1 -3.7 25.3 63 -9.9 14.3
07:10 1020 30.12 850 25.1 -3.7 25.4 60 -10.4 13.3
07:15 1021 30.15 850 25.1 -3.7 25.3 58 -10.7 12.7
07:20 1021 30.15 850 25.1 -3.6 25.4 58 -10.7 12.7
07:25 1021 30.15 850 25.1 -3.6 25.5 58 -10.7 12.7
07:30 1021 30.15 850 25.1 -3.6 25.6 58 -10.7 12.7
07:35 1020 30.12 850 25.1 -3.4 25.8 56 -11 12.2
07:40 1021 30.15 850 25.1 -3.3 26 56 -10.8 12.6
07:45 1020 30.12 850 25.1 -3.3 26.1 55 -11 12.2
07:50 1020 30.12 850 25.1 -3.1 26.4 54 -11.1 12
07:55 1020 30.12 849 25.07 -3 26.7 54 -11 12.1
08:00 1020 30.12 849 25.07 -2.7 27.2 53 -11.1 12.1
08:05 1020 30.12 849 25.07 -2.4 27.6 52 -10.9 12.4
08:10 1020 30.12 849 25.07 -2.4 27.7 53 -10.7 12.8
08:15 1020 30.12 849 25.07 -2.3 27.9 53 -10.7 12.8
08:20 1020 30.12 849 25.07 -2.1 28.1 53 -10.4 13.3
08:25 1020 30.12 850 25.1 -1.8 28.7 53 -10.2 13.7
08:30 1020 30.12 849 25.07 -1.9 28.6 54 -10 14
08:35 1020 30.12 849 25.07 -2 28.4 55 -9.9 14.2
08:40 1020 30.12 850 25.1 -1.9 28.7 54 -9.9 14.2
08:45 1020 30.12 850 25.1 -1.9 28.6 55 -9.9 14.2
08:50 1020 30.12 850 25.1 -1.8 28.7 55 -9.8 14.4
08:55 1020 30.12 850 25.1 -1.6 29.2 54 -9.7 14.6
09:00 1020 30.12 850 25.1 -1.1 30 53 -9.6 14.7
09:05 1020 30.12 850 25.1 -0.7 30.8 52 -9.4 15.1
09:10 1020 30.12 850 25.1 -0.6 30.9 52 -9.3 15.3
09:15 1020 30.12 850 25.1 -1 30.3 54 -9.3 15.3
09:20 1020 30.12 849 25.07 -1 30.2 53 -9.5 14.9
09:25 1020 30.12 849 25.07 -0.5 31.1 51 -9.5 14.8
09:30 1020 30.12 849 25.07 -0 32 51 -9 15.7
09:35 1020 30.12 849 25.07 0.1 32.3 48 -9.7 14.5
09:40 1020 30.12 849 25.07 0.3 32.5 48 -9.5 14.9
09:45 1020 30.12 849 25.07 0.8 33.5 46 -9.5 14.9
09:50 1020 30.12 849 25.07 1.3 34.3 45 -9.3 15.3
09:55 1020 30.12 849 25.07 1.6 35 45 -9.2 15.5
10:00 1020 30.12 849 25.07 2 35.6 44 -9.1 15.6
10:05 1020 30.12 849 25.07 2.4 36.3 42 -9.1 15.6
10:10 1020 30.12 849 25.07 2.8 37.1 41 -9.2 15.5
10:15 1020 30.12 849 25.07 3.1 37.5 40 -9.2 15.5
10:20 1019 30.09 849 25.07 3.1 37.5 40 -9.2 15.5
10:25 1020 30.12 849 25.07 3.2 37.8 41 -8.7 16.3
10:30 1019 30.09 849 25.07 3 37.4 41 -9.1 15.6
10:35 1020 30.12 849 25.07 3.1 37.6 41 -9.1 15.7
10:40 1020 30.12 849 25.07 3.7 38.7 39 -8.9 16
10:45 1020 30.12 849 25.07 4.3 39.8 37 -9 15.8
10:50 1020 30.12 849 25.07 4.4 40 38 -8.7 16.4
10:55 1020 30.12 849 25.07 4.3 39.7 38 -9 15.9
11:00 1020 30.12 849 25.07 3.8 38.9 41 -8.3 17.1
11:05 1019 30.09 849 25.07 3.8 38.9 38 -9.1 15.6
11:10 1019 30.09 849 25.07 4.1 39.4 36 -9.5 14.9
11:15 1019 30.09 848 25.04 4.8 40.6 36 -9 15.9
11:20 1019 30.09 848 25.04 4.9 40.9 35 -9.3 15.3
11:25 1019 30.09 848 25.04 5 40.9 36 -8.8 16.1
11:30 1019 30.09 848 25.04 5.5 42 34 -9 15.7
11:35 1019 30.09 848 25.04 6.1 42.9 35 -8.3 17.1
11:40 1019 30.09 848 25.04 5.9 42.7 34 -8.8 16.1
11:45 1019 30.09 848 25.04 5.7 42.3 35 -8.7 16.3
11:50 1019 30.09 848 25.04 6.4 43.5 34 -8.2 17.3
11:55 1019 30.09 848 25.04 6.6 43.8 33 -8.6 16.6
12:00 1019 30.09 848 25.04 7 44.5 33 -8.3 17.1
12:05 1019 30.09 848 25.04 6.9 44.4 33 -8.3 17.1
12:10 1019 30.09 848 25.04 6.9 44.3 34 -7.9 17.7
12:15 1019 30.09 848 25.04 6.6 43.9 34 -8.3 17.1
12:20 1019 30.09 848 25.04 6.6 43.8 35 -7.9 17.8
12:25 1019 30.09 848 25.04 6.5 43.8 35 -7.9 17.7
12:30 1018 30.06 848 25.04 6.4 43.5 36 -7.6 18.4
12:35 1018 30.06 848 25.04 6.1 42.9 36 -7.9 17.8
12:40 1018 30.06 848 25.04 6.2 43.1 36 -7.9 17.9
12:45 1018 30.06 847 25.01 6.3 43.3 36 -7.9 17.8
12:50 1018 30.06 847 25.01 6.7 44.1 35 -7.7 18.2
12:55 1018 30.06 847 25.01 6.4 43.4 36 -7.6 18.3
13:00 1018 30.06 847 25.01 6.4 43.5 36 -7.7 18.2
13:05 1018 30.06 847 25.01 6.4 43.5 36 -7.7 18.1
13:10 1018 30.06 847 25.01 6.4 43.6 36 -7.6 18.4
13:15 1018 30.06 847 25.01 6.2 43.2 37 -7.5 18.5
13:20 1018 30.06 847 25.01 6.1 43.1 36 -7.7 18.1
13:25 1018 30.06 847 25.01 6.3 43.4 36 -7.5 18.4
13:30 1018 30.06 847 25.01 6.2 43.1 37 -7.5 18.4
13:35 1018 30.06 847 25.01 6.5 43.7 36 -7.6 18.2
13:40 1018 30.06 847 25.01 6.7 44.1 36 -7.4 18.7
13:45 1018 30.06 847 25.01 6.7 44.1 36 -7.2 19
13:50 1017 30.03 847 25.01 7.3 45.1 34 -7.6 18.3
13:55 1017 30.03 847 25.01 7.7 45.9 34 -7.2 19
14:00 1017 30.03 847 25.01 7.8 46.1 35 -6.8 19.7
14:05 1017 30.03 846 24.98 8 46.4 34 -7 19.5
14:10 1017 30.03 846 24.98 8 46.4 34 -7.1 19.2
14:15 1017 30.03 846 24.98 8.4 47.2 33 -6.8 19.8
14:20 1017 30.03 846 24.98 8.6 47.4 33 -6.9 19.5
14:25 1017 30.03 846 24.98 8.7 47.7 33 -6.5 20.3
14:30 1017 30.03 846 24.98 8.4 47.2 34 -6.6 20
14:35 1017 30.03 846 24.98 7.9 46.3 34 -7.1 19.2
14:40 1017 30.03 846 24.98 8.6 47.4 33 -6.7 19.9
14:45 1017 30.03 846 24.98 9 48.2 32 -6.7 19.9
14:50 1017 30.03 846 24.98 9 48.2 33 -6.3 20.7
14:55 1017 30.03 846 24.98 8.9 48.1 33 -6.7 20
15:00 1017 30.03 846 24.98 9.5 49.2 31 -6.6 20.1
15:05 1017 30.03 846 24.98 9.9 49.8 31 -6.3 20.7
15:10 1016 30 846 24.98 9.1 48.5 33 -6.2 20.9
15:15 1016 30 846 24.98 8.7 47.7 33 -6.5 20.2
15:20 1016 30 845 24.95 8.9 48 33 -6.7 20
15:25 1016 30 845 24.95 9.2 48.5 33 -6.1 21
15:30 1016 30 845 24.95 8.7 47.7 35 -5.9 21.5
15:35 1016 30 845 24.95 8.5 47.3 35 -6.2 20.9
15:40 1016 30 845 24.95 9.3 48.8 32 -6.6 20.1
15:45 1016 30 845 24.95 9.8 49.6 33 -5.6 21.9
15:50 1016 30 845 24.95 9.4 48.8 34 -5.8 21.5
15:55 1016 30 845 24.95 8.9 48.1 36 -5.5 22.2
16:00 1016 30 845 24.95 8.8 47.9 34 -6.1 21.1
16:05 1016 30 845 24.95 9.1 48.4 34 -5.9 21.4
16:10 1016 30 845 24.95 9.3 48.7 34 -5.9 21.4
16:15 1016 30 845 24.95 9.7 49.4 33 -5.9 21.4
16:20 1015 29.97 845 24.95 9.5 49.1 35 -5.3 22.5
16:25 1015 29.97 845 24.95 8.7 47.7 36 -5.4 22.3
16:30 1015 29.97 845 24.95 8.1 46.5 37 -5.7 21.8
16:35 1015 29.97 845 24.95 8.4 47.1 36 -5.7 21.7
16:40 1015 29.97 845 24.95 8.9 48 36 -5.5 22.1
16:45 1015 29.97 844 24.92 9.2 48.5 36 -5.1 22.7
16:50 1015 29.97 844 24.92 9.4 48.9 36 -5 22.9
16:55 1015 29.97 844 24.92 9.4 48.9 36 -5 22.9
17:00 1015 29.97 844 24.92 9.3 48.7 37 -4.7 23.6
17:05 1015 29.97 844 24.92 9 48.2 37 -4.8 23.3
17:10 1015 29.97 844 24.92 8.6 47.5 39 -4.7 23.6
17:15 1015 29.97 844 24.92 8.6 47.5 38 -4.8 23.4
17:20 1015 29.97 844 24.92 8.9 48 38 -4.5 23.9
17:25 1015 29.97 844 24.92 8.9 48 39 -4.4 24.1
17:30 1015 29.97 844 24.92 9 48.3 38 -4.5 24
17:35 1015 29.97 844 24.92 9.1 48.4 39 -4 24.8
17:40 1015 29.97 844 24.92 8.8 47.9 40 -4.1 24.6
17:45 1015 29.97 844 24.92 8.8 47.8 41 -3.9 25.1
17:50 1014 29.94 844 24.92 8.7 47.7 40 -4.1 24.6
17:55 1014 29.94 844 24.92 8.7 47.6 40 -4.2 24.4
18:00 1014 29.94 844 24.92 8.6 47.5 40 -4.2 24.5
18:05 1014 29.94 844 24.92 8.7 47.7 39 -4.5 23.9
18:10 1014 29.94 844 24.92 8.8 47.9 39 -4.3 24.3
18:15 1014 29.94 844 24.92 8.6 47.5 41 -4 24.8
18:20 1015 29.97 844 24.92 8.3 47 42 -3.7 25.3
18:25 1015 29.97 844 24.92 8.2 46.8 41 -4.1 24.6
18:30 1014 29.94 844 24.92 8.2 46.8 42 -4 24.9
18:35 1014 29.94 844 24.92 8.2 46.8 42 -4 24.7
18:40 1014 29.94 844 24.92 8.3 46.9 41 -4 24.7
18:45 1014 29.94 843 24.89 8.3 47 42 -3.8 25.2
18:50 1014 29.94 844 24.92 8.2 46.7 44 -3.3 26.1
18:55 1014 29.94 844 24.92 7.8 46 44 -3.7 25.3
19:00 1014 29.94 844 24.92 8 46.3 44 -3.5 25.7
19:05 1014 29.94 844 24.92 8 46.5 43 -3.7 25.4
19:10 1014 29.94 844 24.92 8 46.3 45 -3.1 26.4
19:15 1014 29.94 844 24.92 7.8 46.1 45 -3.2 26.3
19:20 1014 29.94 844 24.92 7.7 45.9 46 -3.2 26.2
19:25 1014 29.94 844 24.92 7.7 45.8 46 -3.1 26.4
19:30 1014 29.94 844 24.92 7.6 45.6 46 -3.4 25.9
19:35 1014 29.94 844 24.92 7.7 45.9 46 -3 26.6
19:40 1014 29.94 844 24.92 7.4 45.3 48 -2.9 26.9
19:45 1014 29.94 844 24.92 7.2 44.9 49 -2.9 26.7
19:50 1015 29.97 844 24.92 7.3 45.1 48 -3.1 26.5
19:55 1015 29.97 844 24.92 7.4 45.3 47 -3 26.5
20:00 1015 29.97 844 24.92 7.3 45.2 49 -2.7 27.1
20:05 1015 29.97 844 24.92 7.4 45.2 49 -2.6 27.3
20:10 1015 29.97 844 24.92 7.3 45.2 49 -2.6 27.4
20:15 1015 29.97 844 24.92 7.5 45.4 46 -3.3 26.1
20:20 1015 29.97 844 24.92 7.8 46.1 46 -3.1 26.5
20:25 1015 29.97 844 24.92 7.8 46.1 47 -2.9 26.8
20:30 1015 29.97 844 24.92 7.6 45.7 47 -2.8 26.9
20:35 1015 29.97 844 24.92 7.4 45.4 49 -2.6 27.2
20:40 1015 29.97 844 24.92 7.2 44.9 50 -2.6 27.4
20:45 1015 29.97 844 24.92 7 44.7 50 -2.7 27.1
20:50 1015 29.97 845 24.95 7.2 44.9 50 -2.6 27.3
20:55 1015 29.97 845 24.95 7.3 45.1 52 -1.8 28.7
21:00 1016 30 845 24.95 7.2 45 53 -1.6 29.1
21:05 1016 30 845 24.95 7 44.5 57 -1 30.2
21:10 1016 30 845 24.95 6.7 44.1 55 -1.6 29
21:15 1016 30 845 24.95 6.8 44.2 56 -1.4 29.5
21:20 1016 30 845 24.95 6.5 43.8 56 -1.7 28.9
21:25 1016 30 845 24.95 6.5 43.7 54 -2 28.4
21:30 1016 30 845 24.95 6.7 44 52 -2.3 27.8
21:35 1016 30 846 24.98 6.8 44.2 54 -1.8 28.7
21:40 1017 30.03 846 24.98 6.5 43.6 55 -1.8 28.7
21:45 1017 30.03 846 24.98 6.2 43.1 58 -1.6 29.2
21:50 1017 30.03 846 24.98 5.8 42.5 58 -1.7 28.9
21:55 1017 30.03 846 24.98 5.7 42.3 59 -1.7 29
22:00 1017 30.03 846 24.98 5.5 41.8 61 -1.5 29.3
22:05 1017 30.03 846 24.98 5.2 41.3 62 -1.6 29.2
22:10 1017 30.03 846 24.98 5.2 41.3 62 -1.4 29.4
22:15 1017 30.03 846 24.98 5 41 65 -1 30.2
22:20 1017 30.03 846 24.98 4.5 40.1 67 -1.1 30
22:25 1017 30.03 846 24.98 4.3 39.7 68 -1.1 30.1
22:30 1017 30.03 846 24.98 4.3 39.7 67 -1.3 29.7
22:35 1017 30.03 846 24.98 4.4 39.9 66 -1.5 29.4
22:40 1017 30.03 846 24.98 4.4 40 65 -1.5 29.4
22:45 1017 30.03 846 24.98 4.4 39.9 67 -1.2 29.9
22:50 1017 30.03 846 24.98 4.3 39.7 68 -1.2 29.9
22:55 1017 30.03 846 24.98 3.9 39 69 -1.3 29.6
23:00 1017 30.03 846 24.98 3.8 38.9 71 -1 30.2
23:05 1017 30.03 846 24.98 3.6 38.4 72 -1 30.2
23:10 1017 30.03 846 24.98 3.4 38.1 73 -1 30.2
23:15 1017 30.03 846 24.98 3.4 38.1 72 -1.2 29.8
23:20 1017 30.03 846 24.98 3.3 38 74 -0.9 30.4
23:25 1017 30.03 846 24.98 3 37.4 76 -0.8 30.5
23:30 1017 30.03 846 24.98 2.9 37.2 75 -1.1 30.1
23:35 1017 30.03 846 24.98 2.8 37 77 -0.9 30.4
23:40 1017 30.03 846 24.98 2.4 36.4 79 -0.8 30.6
23:45 1017 30.03 846 24.98 2.3 36.2 79 -0.9 30.3
23:50 1017 30.03 846 24.98 2.4 36.3 79 -0.8 30.5
23:55 1017 30.03 846 24.98 2.4 36.4 79 -0.8 30.5
24:00 1017 30.03 846 24.98 2.4 36.4 79 -0.9 30.4